createdAt,value
2022-11-30T00:02:02.782Z,-0.21
2022-11-30T00:04:33.278Z,-0.37
2022-11-30T00:07:08.149Z,-0.36
2022-11-30T00:09:42.999Z,-0.32
2022-11-30T00:12:12.556Z,-0.33
2022-11-30T00:14:46.994Z,-0.23
2022-11-30T00:17:17.651Z,-0.19
2022-11-30T00:19:46.656Z,-0.27
2022-11-30T00:22:17.245Z,-0.25
2022-11-30T00:24:47.128Z,-0.22
2022-11-30T00:27:16.317Z,-0.41
2022-11-30T00:29:44.633Z,-0.39
2022-11-30T00:32:14.247Z,-0.26
2022-11-30T00:34:44.662Z,-0.40
2022-11-30T00:37:16.255Z,-0.27
2022-11-30T00:39:46.206Z,-0.29
2022-11-30T00:42:15.084Z,-0.23
2022-11-30T00:44:44.690Z,-0.19
2022-11-30T00:47:13.813Z,-0.41
2022-11-30T00:49:43.357Z,-0.21
2022-11-30T00:52:12.622Z,-0.28
2022-11-30T00:54:40.625Z,-0.42
2022-11-30T00:57:09.364Z,-0.37
2022-11-30T00:59:38.078Z,-0.38
2022-11-30T01:02:09.153Z,-0.45
2022-11-30T01:04:42.777Z,-0.28
2022-11-30T01:07:11.936Z,-0.21
2022-11-30T01:09:43.621Z,-0.37
2022-11-30T01:12:13.034Z,-0.56
2022-11-30T01:14:42.572Z,-0.41
2022-11-30T01:17:12.153Z,-0.42
2022-11-30T01:19:46.898Z,-0.40
2022-11-30T01:22:16.983Z,-0.29
2022-11-30T01:24:46.592Z,-0.23
2022-11-30T01:27:16.404Z,-0.19
2022-11-30T01:29:45.736Z,-0.43
2022-11-30T01:32:13.711Z,-0.28
2022-11-30T01:34:42.597Z,-0.27
2022-11-30T01:37:14.360Z,-0.10
2022-11-30T01:39:43.661Z,-0.21
2022-11-30T01:42:19.865Z,-0.13
2022-11-30T01:44:52.401Z,0.08
2022-11-30T01:47:29.058Z,-0.08
2022-11-30T01:50:23.673Z,-0.07
2022-11-30T01:52:56.811Z,-0.01
2022-11-30T01:55:35.551Z,-0.06
2022-11-30T01:58:10.374Z,-0.31
2022-11-30T02:00:43.766Z,-0.27
2022-11-30T02:03:18.024Z,-0.37
2022-11-30T02:05:47.639Z,-0.36
2022-11-30T02:08:17.861Z,-0.31
2022-11-30T02:10:53.634Z,-0.32
2022-11-30T02:13:46.973Z,-0.23
2022-11-30T02:16:33.724Z,-0.19
2022-11-30T02:19:05.464Z,-0.44
2022-11-30T02:21:52.230Z,-0.43
2022-11-30T02:24:51.387Z,-0.45
2022-11-30T02:27:49.296Z,-0.39
2022-11-30T02:30:23.458Z,-0.26
2022-11-30T02:33:00.960Z,-0.34
2022-11-30T02:35:36.363Z,-0.39
2022-11-30T02:38:09.179Z,-0.41
2022-11-30T02:40:38.741Z,-0.40
2022-11-30T02:43:10.358Z,-0.36
2022-11-30T02:46:08.950Z,-0.25
2022-11-30T02:49:11.376Z,-0.42
2022-11-30T02:51:42.095Z,-0.41
2022-11-30T02:54:11.902Z,-0.47
2022-11-30T02:56:40.959Z,-0.36
2022-11-30T02:59:10.751Z,-0.24
2022-11-30T03:01:43.363Z,-0.33
2022-11-30T03:04:14.055Z,-0.33
2022-11-30T03:06:46.678Z,-0.42
2022-11-30T03:09:17.782Z,-0.23
2022-11-30T03:11:47.242Z,-0.20
2022-11-30T03:14:19.387Z,-0.25
2022-11-30T03:16:49.497Z,-0.23
2022-11-30T03:19:20.028Z,-0.19
2022-11-30T03:21:47.576Z,-0.13
2022-11-30T03:24:18.791Z,-0.27
2022-11-30T03:26:49.096Z,-0.27
2022-11-30T03:29:18.743Z,-0.38
2022-11-30T03:31:49.936Z,-0.33
2022-11-30T03:34:18.723Z,-0.30
2022-11-30T03:36:49.351Z,-0.27
2022-11-30T03:39:25.195Z,-0.18
2022-11-30T03:41:54.251Z,-0.31
2022-11-30T03:44:22.835Z,-0.34
2022-11-30T03:46:52.187Z,-0.31
2022-11-30T03:49:20.762Z,-0.17
2022-11-30T03:51:50.611Z,-0.29
2022-11-30T03:54:21.875Z,-0.37
2022-11-30T03:56:52.473Z,-0.34
2022-11-30T03:59:20.715Z,-0.37
2022-11-30T04:01:50.443Z,-0.29
2022-11-30T04:04:21.309Z,-0.37
2022-11-30T04:06:49.750Z,-0.38
2022-11-30T04:09:20.714Z,-0.37
2022-11-30T04:11:49.014Z,-0.40
2022-11-30T04:14:18.809Z,-0.23
2022-11-30T04:16:50.295Z,-0.32
2022-11-30T04:19:20.254Z,-0.28
2022-11-30T04:21:53.091Z,-0.17
2022-11-30T04:24:23.051Z,-0.16
2022-11-30T04:26:54.819Z,-0.24
2022-11-30T04:29:38.456Z,-0.25
2022-11-30T04:32:07.181Z,-0.06
2022-11-30T04:34:37.596Z,-0.11
2022-11-30T04:37:06.127Z,-0.19
2022-11-30T04:39:36.717Z,-0.20
2022-11-30T04:42:19.134Z,-0.21
2022-11-30T04:47:35.841Z,-0.47
2022-11-30T04:53:02.759Z,-0.27
2022-11-30T04:55:45.917Z,-0.30
2022-11-30T04:58:14.648Z,-0.36
2022-11-30T05:00:57.905Z,-0.40
2022-11-30T05:03:30.845Z,-0.25
2022-11-30T05:06:20.388Z,-0.21
2022-11-30T05:08:55.271Z,-0.33
2022-11-30T05:11:27.331Z,-0.26
2022-11-30T05:14:02.631Z,-0.28
2022-11-30T05:16:32.952Z,-0.22
2022-11-30T05:22:01.762Z,-0.35
2022-11-30T05:24:30.927Z,-0.26
2022-11-30T05:27:12.683Z,-0.14
2022-11-30T05:29:58.548Z,-0.27
2022-11-30T05:35:12.029Z,-0.31
2022-11-30T05:46:11.217Z,-0.12
2022-11-30T05:48:47.491Z,-0.15
2022-11-30T05:51:19.942Z,-0.09
2022-11-30T05:53:53.485Z,0.04
2022-11-30T05:56:22.645Z,0.07
2022-11-30T06:01:33.882Z,0.06
2022-11-30T06:04:19.985Z,0.29
2022-11-30T06:06:56.603Z,0.23
2022-11-30T06:09:27.532Z,0.22
2022-11-30T06:12:03.756Z,0.28
2022-11-30T06:14:36.791Z,0.29
2022-11-30T06:17:11.812Z,0.19
2022-11-30T06:19:59.197Z,0.42
2022-11-30T06:36:15.112Z,0.55
2022-11-30T06:38:45.060Z,0.70
2022-11-30T06:41:14.038Z,0.64
2022-11-30T06:43:46.082Z,0.78
2022-11-30T06:46:17.966Z,0.81
2022-11-30T06:48:55.216Z,0.90
2022-11-30T06:54:40.004Z,0.91
2022-11-30T06:57:16.116Z,1.01
2022-11-30T07:02:56.930Z,0.95
2022-11-30T07:14:49.015Z,1.16
2022-11-30T07:17:33.094Z,1.03
2022-11-30T07:30:34.128Z,1.23
2022-11-30T07:39:42.194Z,1.47
2022-11-30T07:54:15.404Z,1.67
2022-11-30T08:05:44.753Z,1.73
2022-11-30T08:20:03.314Z,2.01
2022-11-30T08:56:51.342Z,2.58
2022-11-30T09:37:40.610Z,5.09
2022-11-30T09:46:38.208Z,5.21
2022-11-30T09:52:58.888Z,5.15
2022-11-30T09:55:42.811Z,5.55
2022-11-30T09:58:48.331Z,5.85
2022-11-30T10:01:28.286Z,6.02
2022-11-30T10:12:14.496Z,5.77
2022-11-30T10:15:12.074Z,5.94
2022-11-30T10:18:05.304Z,6.02
2022-11-30T10:21:16.179Z,6.23
2022-11-30T10:23:54.142Z,5.92
2022-11-30T10:26:37.451Z,6.08
2022-11-30T10:29:29.155Z,6.09
2022-11-30T10:32:06.216Z,6.07
2022-11-30T10:34:39.033Z,5.45
2022-11-30T10:37:41.011Z,5.65
2022-11-30T10:40:44.713Z,5.55
2022-11-30T10:43:48.983Z,5.70
2022-11-30T10:46:38.866Z,5.76
2022-11-30T10:49:20.093Z,6.10
2022-11-30T10:54:46.646Z,5.97
2022-11-30T10:57:17.356Z,5.78
2022-11-30T11:00:00.477Z,5.91
2022-11-30T11:02:53.578Z,6.18
2022-11-30T11:05:26.961Z,6.13
2022-11-30T11:08:27.004Z,6.68
2022-11-30T11:11:04.775Z,6.70
2022-11-30T11:13:49.027Z,6.69
2022-11-30T11:16:19.212Z,6.88
2022-11-30T11:18:58.390Z,6.91
2022-11-30T11:21:31.198Z,6.77
2022-11-30T11:24:24.406Z,6.77
2022-11-30T11:26:55.101Z,6.39
2022-11-30T11:29:35.064Z,6.16
2022-11-30T11:32:21.348Z,6.22
2022-11-30T11:34:51.727Z,5.87
2022-11-30T11:37:28.410Z,6.15
2022-11-30T11:40:21.169Z,5.76
2022-11-30T11:48:57.508Z,5.83
2022-11-30T11:51:42.699Z,5.60
2022-11-30T11:54:41.371Z,5.69
2022-11-30T11:58:02.893Z,5.49
2022-11-30T12:00:32.575Z,5.83
2022-11-30T12:03:53.448Z,5.60
2022-11-30T12:06:23.944Z,5.60
2022-11-30T12:09:05.919Z,5.59
2022-11-30T12:11:44.348Z,5.41
2022-11-30T12:14:15.767Z,5.54
2022-11-30T12:17:21.969Z,5.51
2022-11-30T12:20:14.011Z,5.45
2022-11-30T12:22:56.371Z,5.42
2022-11-30T12:25:58.682Z,5.19
2022-11-30T12:28:49.847Z,5.10
2022-11-30T12:31:28.264Z,5.26
2022-11-30T12:41:28.307Z,5.10
2022-11-30T12:44:41.835Z,5.03
2022-11-30T12:51:02.389Z,5.01
2022-11-30T12:54:16.113Z,5.02
2022-11-30T12:57:04.624Z,5.13
2022-11-30T13:00:05.775Z,5.11
2022-11-30T13:03:29.803Z,5.14
2022-11-30T13:09:26.063Z,5.03
2022-11-30T13:12:06.927Z,5.07
2022-11-30T13:35:55.572Z,4.78
2022-11-30T13:38:36.793Z,4.78
2022-11-30T13:41:10.212Z,4.71
2022-11-30T13:46:40.817Z,4.81
2022-11-30T13:49:29.738Z,4.62
2022-11-30T13:55:21.026Z,4.63
2022-11-30T13:58:14.612Z,4.64
2022-11-30T14:01:02.818Z,4.76
2022-11-30T14:03:34.540Z,4.87
2022-11-30T14:09:45.499Z,4.46
2022-11-30T14:13:03.245Z,4.56
2022-11-30T14:15:55.508Z,4.54
2022-11-30T14:27:46.317Z,4.59
2022-11-30T14:36:13.007Z,4.53
2022-11-30T14:41:32.051Z,4.43
2022-11-30T14:47:22.177Z,4.28
2022-11-30T14:49:58.113Z,4.27
2022-11-30T14:53:12.983Z,4.33
2022-11-30T14:59:12.259Z,4.20
2022-11-30T15:01:45.905Z,4.20
2022-11-30T15:04:33.999Z,4.22
2022-11-30T15:07:18.033Z,4.15
2022-11-30T15:12:38.346Z,4.16
2022-11-30T15:15:36.129Z,4.11
2022-11-30T15:18:38.450Z,4.04
2022-11-30T15:21:31.252Z,3.96
2022-11-30T15:24:01.999Z,4.00
2022-11-30T15:29:49.218Z,3.99
2022-11-30T15:32:24.540Z,4.04
2022-11-30T15:35:01.189Z,4.09
2022-11-30T15:37:30.589Z,3.77
2022-11-30T15:40:03.051Z,3.76
2022-11-30T15:42:47.843Z,3.63
2022-11-30T15:45:33.624Z,3.62
2022-11-30T15:48:31.865Z,3.62
2022-11-30T15:51:07.697Z,3.45
2022-11-30T16:07:00.015Z,3.40
2022-11-30T16:09:49.657Z,2.99
2022-11-30T16:15:39.750Z,3.02
2022-11-30T16:18:29.137Z,3.26
2022-11-30T16:24:16.772Z,3.03
2022-11-30T16:27:00.649Z,2.96
2022-11-30T16:42:25.700Z,2.73
2022-11-30T16:51:34.227Z,2.67
2022-11-30T17:06:53.683Z,2.52
2022-11-30T17:19:15.291Z,2.33
2022-11-30T17:21:53.275Z,2.41
2022-11-30T17:27:20.729Z,2.40
2022-11-30T17:45:33.144Z,2.26
2022-11-30T17:48:34.764Z,2.14
2022-11-30T17:51:18.171Z,2.19
2022-11-30T18:00:20.838Z,2.22
2022-11-30T18:03:05.666Z,2.12
2022-11-30T18:05:37.547Z,2.10
2022-11-30T18:08:14.544Z,2.17
2022-11-30T18:19:51.350Z,2.00
2022-11-30T18:43:50.295Z,2.00
2022-11-30T19:02:24.681Z,1.93
2022-11-30T19:08:35.354Z,1.74
2022-11-30T19:11:10.289Z,1.86
2022-11-30T19:47:49.519Z,1.83
2022-11-30T19:50:35.245Z,1.79
2022-11-30T19:53:09.060Z,1.92
2022-11-30T19:58:43.795Z,1.94
2022-11-30T20:01:19.578Z,1.95
2022-11-30T20:07:31.665Z,1.88
2022-11-30T20:13:36.675Z,1.97
2022-11-30T20:43:25.129Z,1.79
2022-11-30T20:49:45.771Z,1.81
2022-11-30T20:52:43.374Z,1.83
2022-11-30T20:58:04.096Z,1.76
2022-11-30T21:00:35.286Z,1.78
2022-11-30T21:11:50.530Z,1.70
2022-11-30T21:17:12.762Z,1.76
2022-11-30T21:19:54.352Z,1.86
2022-11-30T21:22:25.394Z,1.90
2022-11-30T21:24:55.247Z,1.86
2022-11-30T21:30:47.020Z,1.77
2022-11-30T21:36:15.882Z,1.76
2022-11-30T21:38:45.929Z,1.83
2022-11-30T21:41:20.060Z,1.74
2022-11-30T21:44:04.911Z,1.75
2022-11-30T21:55:58.307Z,1.60
2022-11-30T22:13:56.250Z,1.54
2022-11-30T22:19:15.738Z,1.40
2022-11-30T22:22:01.558Z,1.52
2022-11-30T22:24:36.400Z,1.49
2022-11-30T22:27:08.717Z,1.54
2022-11-30T22:29:38.943Z,1.53
2022-11-30T22:32:25.185Z,1.40
2022-11-30T22:34:56.552Z,1.46
2022-11-30T22:37:28.606Z,1.45
2022-11-30T22:40:00.008Z,1.58
2022-11-30T22:42:35.902Z,1.59
2022-11-30T22:50:40.736Z,1.59
2022-11-30T22:57:28.701Z,1.68
2022-11-30T23:00:02.893Z,1.67
2022-11-30T23:02:35.464Z,1.52
2022-11-30T23:05:26.278Z,1.50
2022-11-30T23:07:55.318Z,1.61
2022-11-30T23:10:25.432Z,1.51
2022-11-30T23:13:00.114Z,1.51
2022-11-30T23:15:31.627Z,1.47
2022-11-30T23:18:03.431Z,1.48
2022-11-30T23:20:34.932Z,1.36
2022-11-30T23:23:06.923Z,1.29
2022-11-30T23:25:38.688Z,1.37
2022-11-30T23:28:20.866Z,1.39
2022-11-30T23:31:07.763Z,1.42
2022-11-30T23:33:39.517Z,1.39
2022-11-30T23:36:11.548Z,1.49
2022-11-30T23:38:56.048Z,1.37
2022-11-30T23:41:32.070Z,1.55
2022-11-30T23:44:11.418Z,1.41
2022-11-30T23:46:43.809Z,1.53
2022-11-30T23:49:34.117Z,1.35
2022-11-30T23:52:15.983Z,1.46
2022-11-30T23:57:52.950Z,1.30
